sensor_id;sensor_type;location;lat;lon;timestamp;P1;durP1;ratioP1;P2;durP2;ratioP2
10116;SDS011;5098;48.792;9.012;2023-02-21T00:02:15;5.05;;;2.47;;
10116;SDS011;5098;48.792;9.012;2023-02-21T00:05:00;2.92;;;2.13;;
10116;SDS011;5098;48.792;9.012;2023-02-21T00:07:45;6.80;;;2.72;;
10116;SDS011;5098;48.792;9.012;2023-02-21T00:10:29;3.33;;;3.03;;
10116;SDS011;5098;48.792;9.012;2023-02-21T00:13:14;3.28;;;2.30;;
10116;SDS011;5098;48.792;9.012;2023-02-21T00:15:58;2.78;;;2.58;;
10116;SDS011;5098;48.792;9.012;2023-02-21T00:18:43;4.80;;;2.67;;
10116;SDS011;5098;48.792;9.012;2023-02-21T00:21:28;2.40;;;1.77;;
10116;SDS011;5098;48.792;9.012;2023-02-21T00:24:13;4.22;;;2.63;;
10116;SDS011;5098;48.792;9.012;2023-02-21T00:26:58;3.67;;;2.35;;
10116;SDS011;5098;48.792;9.012;2023-02-21T00:29:43;3.15;;;2.38;;
10116;SDS011;5098;48.792;9.012;2023-02-21T00:32:27;4.82;;;2.47;;
10116;SDS011;5098;48.792;9.012;2023-02-21T00:35:12;3.60;;;2.40;;
10116;SDS011;5098;48.792;9.012;2023-02-21T00:37:56;3.72;;;1.98;;
10116;SDS011;5098;48.792;9.012;2023-02-21T00:40:41;5.40;;;1.92;;
10116;SDS011;5098;48.792;9.012;2023-02-21T00:43:29;3.30;;;2.10;;
10116;SDS011;5098;48.792;9.012;2023-02-21T00:46:14;4.95;;;2.30;;
10116;SDS011;5098;48.792;9.012;2023-02-21T00:48:59;3.60;;;2.22;;
10116;SDS011;5098;48.792;9.012;2023-02-21T00:51:44;4.68;;;2.50;;
10116;SDS011;5098;48.792;9.012;2023-02-21T00:54:29;3.28;;;2.10;;
10116;SDS011;5098;48.792;9.012;2023-02-21T00:57:14;4.95;;;2.40;;
10116;SDS011;5098;48.792;9.012;2023-02-21T00:59:58;2.70;;;2.20;;
10116;SDS011;5098;48.792;9.012;2023-02-21T01:02:43;3.47;;;2.20;;
10116;SDS011;5098;48.792;9.012;2023-02-21T01:05:28;3.20;;;2.30;;
10116;SDS011;5098;48.792;9.012;2023-02-21T01:08:12;3.60;;;2.08;;
10116;SDS011;5098;48.792;9.012;2023-02-21T01:10:58;3.33;;;2.30;;
10116;SDS011;5098;48.792;9.012;2023-02-21T01:13:42;19.40;;;12.85;;
10116;SDS011;5098;48.792;9.012;2023-02-21T01:16:28;2.50;;;2.30;;
10116;SDS011;5098;48.792;9.012;2023-02-21T01:19:12;4.30;;;2.97;;
10116;SDS011;5098;48.792;9.012;2023-02-21T01:21:57;8.18;;;3.03;;
10116;SDS011;5098;48.792;9.012;2023-02-21T01:24:42;5.60;;;2.90;;
10116;SDS011;5098;48.792;9.012;2023-02-21T01:27:26;5.57;;;3.30;;
10116;SDS011;5098;48.792;9.012;2023-02-21T01:30:11;4.07;;;3.20;;
10116;SDS011;5098;48.792;9.012;2023-02-21T01:32:56;4.20;;;2.80;;
10116;SDS011;5098;48.792;9.012;2023-02-21T01:35:40;5.15;;;3.00;;
10116;SDS011;5098;48.792;9.012;2023-02-21T01:38:25;3.95;;;2.42;;
10116;SDS011;5098;48.792;9.012;2023-02-21T01:41:09;2.60;;;2.00;;
10116;SDS011;5098;48.792;9.012;2023-02-21T01:44:01;4.03;;;2.58;;
10116;SDS011;5098;48.792;9.012;2023-02-21T01:46:46;4.03;;;2.90;;
10116;SDS011;5098;48.792;9.012;2023-02-21T01:49:31;3.47;;;2.10;;
10116;SDS011;5098;48.792;9.012;2023-02-21T01:52:17;4.68;;;2.65;;
10116;SDS011;5098;48.792;9.012;2023-02-21T01:55:02;4.15;;;2.75;;
10116;SDS011;5098;48.792;9.012;2023-02-21T01:57:47;4.15;;;2.58;;
10116;SDS011;5098;48.792;9.012;2023-02-21T02:00:32;4.50;;;2.30;;
10116;SDS011;5098;48.792;9.012;2023-02-21T02:03:18;2.97;;;2.00;;
10116;SDS011;5098;48.792;9.012;2023-02-21T02:06:08;3.13;;;2.28;;
10116;SDS011;5098;48.792;9.012;2023-02-21T02:08:53;4.03;;;2.25;;
10116;SDS011;5098;48.792;9.012;2023-02-21T02:24:59;4.30;;;2.60;;
10116;SDS011;5098;48.792;9.012;2023-02-21T02:35:58;3.83;;;1.95;;
10116;SDS011;5098;48.792;9.012;2023-02-21T02:38:41;3.65;;;2.08;;
10116;SDS011;5098;48.792;9.012;2023-02-21T02:41:14;3.75;;;2.30;;
10116;SDS011;5098;48.792;9.012;2023-02-21T02:46:29;3.63;;;2.05;;
10116;SDS011;5098;48.792;9.012;2023-02-21T02:49:02;3.78;;;2.05;;
10116;SDS011;5098;48.792;9.012;2023-02-21T02:51:31;3.13;;;1.98;;
10116;SDS011;5098;48.792;9.012;2023-02-21T02:53:58;2.60;;;2.10;;
10116;SDS011;5098;48.792;9.012;2023-02-21T02:56:24;2.95;;;2.40;;
10116;SDS011;5098;48.792;9.012;2023-02-21T03:03:48;4.38;;;2.10;;
10116;SDS011;5098;48.792;9.012;2023-02-21T03:06:22;4.10;;;2.30;;
10116;SDS011;5098;48.792;9.012;2023-02-21T03:11:20;4.32;;;2.50;;
10116;SDS011;5098;48.792;9.012;2023-02-21T03:14:12;3.33;;;2.80;;
10116;SDS011;5098;48.792;9.012;2023-02-21T03:16:34;4.28;;;2.95;;
10116;SDS011;5098;48.792;9.012;2023-02-21T03:21:36;3.60;;;3.03;;
10116;SDS011;5098;48.792;9.012;2023-02-21T03:24:04;5.57;;;3.05;;
10116;SDS011;5098;48.792;9.012;2023-02-21T03:26:32;5.53;;;2.78;;
10116;SDS011;5098;48.792;9.012;2023-02-21T03:28:59;3.55;;;2.90;;
10116;SDS011;5098;48.792;9.012;2023-02-21T03:31:27;3.35;;;2.92;;
10116;SDS011;5098;48.792;9.012;2023-02-21T03:33:55;5.32;;;2.78;;
10116;SDS011;5098;48.792;9.012;2023-02-21T03:36:21;3.08;;;2.58;;
10116;SDS011;5098;48.792;9.012;2023-02-21T03:38:48;5.25;;;2.80;;
10116;SDS011;5098;48.792;9.012;2023-02-21T03:41:14;4.10;;;2.20;;
10116;SDS011;5098;48.792;9.012;2023-02-21T03:43:41;3.80;;;2.42;;
10116;SDS011;5098;48.792;9.012;2023-02-21T03:46:07;4.93;;;2.72;;
10116;SDS011;5098;48.792;9.012;2023-02-21T03:48:33;5.30;;;3.75;;
10116;SDS011;5098;48.792;9.012;2023-02-21T03:50:59;5.88;;;3.53;;
10116;SDS011;5098;48.792;9.012;2023-02-21T03:53:25;3.95;;;2.78;;
10116;SDS011;5098;48.792;9.012;2023-02-21T03:55:51;7.35;;;3.83;;
10116;SDS011;5098;48.792;9.012;2023-02-21T03:58:18;6.07;;;3.00;;
10116;SDS011;5098;48.792;9.012;2023-02-21T04:00:44;6.82;;;3.42;;
10116;SDS011;5098;48.792;9.012;2023-02-21T04:03:10;5.95;;;3.28;;
10116;SDS011;5098;48.792;9.012;2023-02-21T04:05:37;3.05;;;2.40;;
10116;SDS011;5098;48.792;9.012;2023-02-21T04:08:03;9.30;;;3.00;;
10116;SDS011;5098;48.792;9.012;2023-02-21T04:10:29;5.72;;;3.00;;
10116;SDS011;5098;48.792;9.012;2023-02-21T04:12:55;4.35;;;2.85;;
10116;SDS011;5098;48.792;9.012;2023-02-21T04:15:21;3.33;;;2.88;;
10116;SDS011;5098;48.792;9.012;2023-02-21T04:17:47;7.15;;;2.55;;
10116;SDS011;5098;48.792;9.012;2023-02-21T04:20:13;3.30;;;2.35;;
10116;SDS011;5098;48.792;9.012;2023-02-21T04:22:39;3.53;;;2.83;;
10116;SDS011;5098;48.792;9.012;2023-02-21T04:25:06;5.32;;;3.10;;
10116;SDS011;5098;48.792;9.012;2023-02-21T04:27:32;3.95;;;3.42;;
10116;SDS011;5098;48.792;9.012;2023-02-21T04:29:59;4.20;;;2.75;;
10116;SDS011;5098;48.792;9.012;2023-02-21T04:32:25;3.35;;;2.40;;
10116;SDS011;5098;48.792;9.012;2023-02-21T04:34:51;4.13;;;2.80;;
10116;SDS011;5098;48.792;9.012;2023-02-21T04:37:17;5.25;;;3.05;;
10116;SDS011;5098;48.792;9.012;2023-02-21T04:39:43;3.83;;;2.70;;
10116;SDS011;5098;48.792;9.012;2023-02-21T04:42:09;5.47;;;3.20;;
10116;SDS011;5098;48.792;9.012;2023-02-21T04:44:35;6.18;;;3.47;;
10116;SDS011;5098;48.792;9.012;2023-02-21T04:47:02;5.60;;;3.28;;
10116;SDS011;5098;48.792;9.012;2023-02-21T04:49:28;6.22;;;3.00;;
10116;SDS011;5098;48.792;9.012;2023-02-21T04:51:54;7.97;;;4.05;;
10116;SDS011;5098;48.792;9.012;2023-02-21T04:54:20;5.10;;;3.00;;
10116;SDS011;5098;48.792;9.012;2023-02-21T04:56:46;4.00;;;3.00;;
10116;SDS011;5098;48.792;9.012;2023-02-21T04:59:12;4.18;;;2.50;;
10116;SDS011;5098;48.792;9.012;2023-02-21T05:01:38;5.00;;;2.60;;
10116;SDS011;5098;48.792;9.012;2023-02-21T05:04:04;4.43;;;2.35;;
10116;SDS011;5098;48.792;9.012;2023-02-21T05:06:31;6.18;;;3.95;;
10116;SDS011;5098;48.792;9.012;2023-02-21T05:08:57;5.40;;;2.78;;
10116;SDS011;5098;48.792;9.012;2023-02-21T05:11:24;2.83;;;2.10;;
10116;SDS011;5098;48.792;9.012;2023-02-21T05:13:50;3.00;;;2.20;;
10116;SDS011;5098;48.792;9.012;2023-02-21T05:16:16;5.93;;;2.67;;
10116;SDS011;5098;48.792;9.012;2023-02-21T05:18:44;3.78;;;2.35;;
10116;SDS011;5098;48.792;9.012;2023-02-21T05:21:10;3.60;;;2.15;;
10116;SDS011;5098;48.792;9.012;2023-02-21T05:23:37;4.80;;;2.45;;
10116;SDS011;5098;48.792;9.012;2023-02-21T05:26:05;5.30;;;2.55;;
10116;SDS011;5098;48.792;9.012;2023-02-21T05:28:33;6.55;;;3.10;;
10116;SDS011;5098;48.792;9.012;2023-02-21T05:30:59;4.65;;;2.92;;
10116;SDS011;5098;48.792;9.012;2023-02-21T05:33:28;6.38;;;3.22;;
10116;SDS011;5098;48.792;9.012;2023-02-21T05:35:54;4.43;;;2.90;;
10116;SDS011;5098;48.792;9.012;2023-02-21T05:38:20;5.60;;;2.70;;
10116;SDS011;5098;48.792;9.012;2023-02-21T05:40:47;7.35;;;2.97;;
10116;SDS011;5098;48.792;9.012;2023-02-21T05:43:13;4.78;;;3.17;;
10116;SDS011;5098;48.792;9.012;2023-02-21T05:45:40;4.60;;;3.20;;
10116;SDS011;5098;48.792;9.012;2023-02-21T05:48:06;7.28;;;3.45;;
10116;SDS011;5098;48.792;9.012;2023-02-21T05:50:32;5.93;;;3.30;;
10116;SDS011;5098;48.792;9.012;2023-02-21T05:52:58;3.75;;;2.85;;
10116;SDS011;5098;48.792;9.012;2023-02-21T05:55:24;5.40;;;3.20;;
10116;SDS011;5098;48.792;9.012;2023-02-21T05:57:51;4.32;;;3.15;;
10116;SDS011;5098;48.792;9.012;2023-02-21T06:00:27;4.85;;;2.95;;
10116;SDS011;5098;48.792;9.012;2023-02-21T06:02:53;7.38;;;3.42;;
10116;SDS011;5098;48.792;9.012;2023-02-21T06:05:21;8.98;;;2.80;;
10116;SDS011;5098;48.792;9.012;2023-02-21T06:07:47;3.92;;;2.90;;
10116;SDS011;5098;48.792;9.012;2023-02-21T06:10:14;4.10;;;2.90;;
10116;SDS011;5098;48.792;9.012;2023-02-21T06:12:40;9.40;;;4.85;;
10116;SDS011;5098;48.792;9.012;2023-02-21T06:15:06;4.80;;;3.97;;
10116;SDS011;5098;48.792;9.012;2023-02-21T06:17:33;7.28;;;5.35;;
10116;SDS011;5098;48.792;9.012;2023-02-21T06:19:59;7.25;;;5.05;;
10116;SDS011;5098;48.792;9.012;2023-02-21T06:22:25;6.43;;;5.35;;
10116;SDS011;5098;48.792;9.012;2023-02-21T06:24:51;11.07;;;5.20;;
10116;SDS011;5098;48.792;9.012;2023-02-21T06:27:17;4.30;;;3.83;;
10116;SDS011;5098;48.792;9.012;2023-02-21T06:29:43;4.95;;;3.97;;
10116;SDS011;5098;48.792;9.012;2023-02-21T06:32:12;6.80;;;4.75;;
10116;SDS011;5098;48.792;9.012;2023-02-21T06:34:38;5.80;;;4.60;;
10116;SDS011;5098;48.792;9.012;2023-02-21T06:37:04;5.22;;;3.00;;
10116;SDS011;5098;48.792;9.012;2023-02-21T06:39:31;6.28;;;3.35;;
10116;SDS011;5098;48.792;9.012;2023-02-21T06:41:57;5.63;;;3.58;;
10116;SDS011;5098;48.792;9.012;2023-02-21T06:44:23;6.75;;;3.85;;
10116;SDS011;5098;48.792;9.012;2023-02-21T06:46:50;6.97;;;4.05;;
10116;SDS011;5098;48.792;9.012;2023-02-21T06:49:19;5.07;;;3.80;;
10116;SDS011;5098;48.792;9.012;2023-02-21T06:51:45;9.15;;;4.95;;
10116;SDS011;5098;48.792;9.012;2023-02-21T06:54:11;7.28;;;5.60;;
10116;SDS011;5098;48.792;9.012;2023-02-21T06:56:37;7.82;;;5.07;;
10116;SDS011;5098;48.792;9.012;2023-02-21T06:59:03;8.90;;;5.90;;
10116;SDS011;5098;48.792;9.012;2023-02-21T07:01:29;13.65;;;7.70;;
10116;SDS011;5098;48.792;9.012;2023-02-21T07:03:56;9.55;;;6.53;;
10116;SDS011;5098;48.792;9.012;2023-02-21T07:06:22;6.63;;;5.43;;
10116;SDS011;5098;48.792;9.012;2023-02-21T07:08:48;9.80;;;4.50;;
10116;SDS011;5098;48.792;9.012;2023-02-21T07:11:15;7.88;;;5.30;;
10116;SDS011;5098;48.792;9.012;2023-02-21T07:13:45;9.68;;;4.80;;
10116;SDS011;5098;48.792;9.012;2023-02-21T07:16:11;10.90;;;4.40;;
10116;SDS011;5098;48.792;9.012;2023-02-21T07:18:38;3.90;;;3.57;;
10116;SDS011;5098;48.792;9.012;2023-02-21T07:21:04;4.60;;;3.50;;
10116;SDS011;5098;48.792;9.012;2023-02-21T07:23:30;5.73;;;4.50;;
10116;SDS011;5098;48.792;9.012;2023-02-21T07:25:56;7.70;;;3.50;;
10116;SDS011;5098;48.792;9.012;2023-02-21T07:28:22;4.83;;;3.77;;
10116;SDS011;5098;48.792;9.012;2023-02-21T07:30:48;7.10;;;3.57;;
10116;SDS011;5098;48.792;9.012;2023-02-21T07:33:14;3.60;;;3.30;;
10116;SDS011;5098;48.792;9.012;2023-02-21T07:35:40;5.90;;;4.60;;
10116;SDS011;5098;48.792;9.012;2023-02-21T07:38:06;7.63;;;5.00;;
10116;SDS011;5098;48.792;9.012;2023-02-21T07:40:33;12.33;;;4.40;;
10116;SDS011;5098;48.792;9.012;2023-02-21T07:42:59;6.27;;;4.50;;
10116;SDS011;5098;48.792;9.012;2023-02-21T07:45:26;5.20;;;3.43;;
10116;SDS011;5098;48.792;9.012;2023-02-21T07:47:52;4.93;;;3.27;;
10116;SDS011;5098;48.792;9.012;2023-02-21T07:50:18;11.03;;;4.17;;
10116;SDS011;5098;48.792;9.012;2023-02-21T07:52:47;10.90;;;4.33;;
10116;SDS011;5098;48.792;9.012;2023-02-21T07:55:13;5.50;;;4.50;;
10116;SDS011;5098;48.792;9.012;2023-02-21T07:57:39;5.93;;;4.40;;
10116;SDS011;5098;48.792;9.012;2023-02-21T08:00:05;6.20;;;5.40;;
10116;SDS011;5098;48.792;9.012;2023-02-21T08:02:31;9.53;;;5.17;;
10116;SDS011;5098;48.792;9.012;2023-02-21T08:04:57;9.40;;;5.00;;
10116;SDS011;5098;48.792;9.012;2023-02-21T08:07:23;8.47;;;4.77;;
10116;SDS011;5098;48.792;9.012;2023-02-21T08:09:50;7.90;;;5.33;;
10116;SDS011;5098;48.792;9.012;2023-02-21T08:12:16;8.80;;;5.70;;
10116;SDS011;5098;48.792;9.012;2023-02-21T08:14:42;8.37;;;5.50;;
10116;SDS011;5098;48.792;9.012;2023-02-21T08:17:08;7.33;;;5.60;;
10116;SDS011;5098;48.792;9.012;2023-02-21T08:19:34;7.93;;;4.70;;
10116;SDS011;5098;48.792;9.012;2023-02-21T08:22:00;5.90;;;4.77;;
10116;SDS011;5098;48.792;9.012;2023-02-21T08:24:26;7.70;;;4.73;;
10116;SDS011;5098;48.792;9.012;2023-02-21T08:26:52;6.87;;;4.30;;
10116;SDS011;5098;48.792;9.012;2023-02-21T08:29:18;8.77;;;4.93;;
10116;SDS011;5098;48.792;9.012;2023-02-21T08:31:44;6.57;;;5.03;;
10116;SDS011;5098;48.792;9.012;2023-02-21T08:34:11;8.57;;;5.80;;
10116;SDS011;5098;48.792;9.012;2023-02-21T08:36:38;8.43;;;5.67;;
10116;SDS011;5098;48.792;9.012;2023-02-21T08:39:05;8.27;;;5.50;;
10116;SDS011;5098;48.792;9.012;2023-02-21T08:41:38;7.90;;;4.83;;
10116;SDS011;5098;48.792;9.012;2023-02-21T08:44:05;15.20;;;5.30;;
10116;SDS011;5098;48.792;9.012;2023-02-21T08:46:31;8.47;;;5.00;;
10116;SDS011;5098;48.792;9.012;2023-02-21T08:48:57;6.87;;;5.33;;
10116;SDS011;5098;48.792;9.012;2023-02-21T08:51:27;10.80;;;5.57;;
10116;SDS011;5098;48.792;9.012;2023-02-21T08:53:53;11.13;;;5.83;;
10116;SDS011;5098;48.792;9.012;2023-02-21T08:56:20;7.40;;;5.13;;
10116;SDS011;5098;48.792;9.012;2023-02-21T08:58:46;9.10;;;5.30;;
10116;SDS011;5098;48.792;9.012;2023-02-21T09:01:12;7.70;;;4.83;;
10116;SDS011;5098;48.792;9.012;2023-02-21T09:03:39;10.57;;;5.87;;
10116;SDS011;5098;48.792;9.012;2023-02-21T09:06:05;6.70;;;5.80;;
10116;SDS011;5098;48.792;9.012;2023-02-21T09:08:32;10.80;;;5.80;;
10116;SDS011;5098;48.792;9.012;2023-02-21T09:10:58;7.93;;;6.17;;
10116;SDS011;5098;48.792;9.012;2023-02-21T09:13:28;8.30;;;6.00;;
10116;SDS011;5098;48.792;9.012;2023-02-21T09:15:55;6.50;;;5.30;;
10116;SDS011;5098;48.792;9.012;2023-02-21T09:18:21;6.30;;;5.07;;
10116;SDS011;5098;48.792;9.012;2023-02-21T09:20:47;8.07;;;5.63;;
10116;SDS011;5098;48.792;9.012;2023-02-21T09:23:21;16.37;;;6.10;;
10116;SDS011;5098;48.792;9.012;2023-02-21T09:25:48;7.40;;;4.30;;
10116;SDS011;5098;48.792;9.012;2023-02-21T09:28:14;10.00;;;4.20;;
10116;SDS011;5098;48.792;9.012;2023-02-21T09:30:41;8.80;;;4.13;;
10116;SDS011;5098;48.792;9.012;2023-02-21T09:33:07;6.63;;;3.30;;
10116;SDS011;5098;48.792;9.012;2023-02-21T09:35:33;7.00;;;4.10;;
10116;SDS011;5098;48.792;9.012;2023-02-21T09:38:00;5.27;;;3.50;;
10116;SDS011;5098;48.792;9.012;2023-02-21T09:42:59;3.90;;;3.10;;
10116;SDS011;5098;48.792;9.012;2023-02-21T09:45:27;4.83;;;3.30;;
10116;SDS011;5098;48.792;9.012;2023-02-21T09:47:55;5.70;;;3.00;;
10116;SDS011;5098;48.792;9.012;2023-02-21T09:50:24;6.73;;;2.77;;
10116;SDS011;5098;48.792;9.012;2023-02-21T09:52:55;4.37;;;3.13;;
10116;SDS011;5098;48.792;9.012;2023-02-21T09:57:47;3.50;;;2.60;;
10116;SDS011;5098;48.792;9.012;2023-02-21T10:00:17;5.50;;;2.70;;
10116;SDS011;5098;48.792;9.012;2023-02-21T10:02:55;7.00;;;2.50;;
10116;SDS011;5098;48.792;9.012;2023-02-21T10:05:27;3.27;;;2.60;;
10116;SDS011;5098;48.792;9.012;2023-02-21T10:08:00;4.00;;;2.57;;
10116;SDS011;5098;48.792;9.012;2023-02-21T10:10:31;4.00;;;2.33;;
10116;SDS011;5098;48.792;9.012;2023-02-21T10:15:40;3.30;;;2.40;;
10116;SDS011;5098;48.792;9.012;2023-02-21T10:18:16;4.60;;;2.27;;
10116;SDS011;5098;48.792;9.012;2023-02-21T10:20:46;3.53;;;2.60;;
10116;SDS011;5098;48.792;9.012;2023-02-21T10:23:18;3.30;;;2.40;;
10116;SDS011;5098;48.792;9.012;2023-02-21T10:25:46;2.30;;;2.10;;
10116;SDS011;5098;48.792;9.012;2023-02-21T10:28:19;2.30;;;2.00;;
10116;SDS011;5098;48.792;9.012;2023-02-21T10:30:45;4.10;;;2.43;;
10116;SDS011;5098;48.792;9.012;2023-02-21T10:33:13;3.70;;;2.10;;
10116;SDS011;5098;48.792;9.012;2023-02-21T10:35:39;2.70;;;2.13;;
10116;SDS011;5098;48.792;9.012;2023-02-21T10:38:06;3.30;;;2.30;;
10116;SDS011;5098;48.792;9.012;2023-02-21T10:40:35;3.80;;;1.97;;
10116;SDS011;5098;48.792;9.012;2023-02-21T10:43:04;2.67;;;2.10;;
10116;SDS011;5098;48.792;9.012;2023-02-21T10:45:33;9.60;;;2.60;;
10116;SDS011;5098;48.792;9.012;2023-02-21T10:48:02;3.00;;;2.30;;
10116;SDS011;5098;48.792;9.012;2023-02-21T10:53:28;7.20;;;2.20;;
10116;SDS011;5098;48.792;9.012;2023-02-21T10:58:52;5.87;;;2.97;;
10116;SDS011;5098;48.792;9.012;2023-02-21T11:03:52;4.37;;;2.67;;
10116;SDS011;5098;48.792;9.012;2023-02-21T11:08:58;2.20;;;1.93;;
10116;SDS011;5098;48.792;9.012;2023-02-21T11:11:37;4.23;;;2.73;;
10116;SDS011;5098;48.792;9.012;2023-02-21T11:14:18;4.90;;;2.90;;
10116;SDS011;5098;48.792;9.012;2023-02-21T11:16:45;4.43;;;3.10;;
10116;SDS011;5098;48.792;9.012;2023-02-21T11:19:28;4.40;;;2.60;;
10116;SDS011;5098;48.792;9.012;2023-02-21T11:22:06;3.73;;;2.83;;
10116;SDS011;5098;48.792;9.012;2023-02-21T11:24:33;5.63;;;2.60;;
10116;SDS011;5098;48.792;9.012;2023-02-21T11:26:59;4.30;;;2.80;;
10116;SDS011;5098;48.792;9.012;2023-02-21T11:29:25;4.63;;;2.87;;
10116;SDS011;5098;48.792;9.012;2023-02-21T11:31:51;4.40;;;2.67;;
10116;SDS011;5098;48.792;9.012;2023-02-21T11:34:18;5.80;;;2.90;;
10116;SDS011;5098;48.792;9.012;2023-02-21T11:36:45;4.50;;;3.03;;
10116;SDS011;5098;48.792;9.012;2023-02-21T11:41:58;4.80;;;2.67;;
10116;SDS011;5098;48.792;9.012;2023-02-21T11:47:27;4.63;;;2.60;;
10116;SDS011;5098;48.792;9.012;2023-02-21T11:49:53;4.77;;;3.30;;
10116;SDS011;5098;48.792;9.012;2023-02-21T11:52:23;6.00;;;3.80;;
10116;SDS011;5098;48.792;9.012;2023-02-21T11:54:50;4.47;;;3.00;;
10116;SDS011;5098;48.792;9.012;2023-02-21T11:57:24;4.50;;;2.90;;
10116;SDS011;5098;48.792;9.012;2023-02-21T12:05:12;4.50;;;2.87;;
10116;SDS011;5098;48.792;9.012;2023-02-21T12:12:49;4.27;;;2.67;;
10116;SDS011;5098;48.792;9.012;2023-02-21T12:15:21;4.37;;;3.40;;
10116;SDS011;5098;48.792;9.012;2023-02-21T12:52:43;7.10;;;3.80;;
10116;SDS011;5098;48.792;9.012;2023-02-21T12:57:11;10.93;;;3.60;;
10116;SDS011;5098;48.792;9.012;2023-02-21T13:02:29;6.63;;;3.20;;
10116;SDS011;5098;48.792;9.012;2023-02-21T13:04:55;9.30;;;3.60;;
10116;SDS011;5098;48.792;9.012;2023-02-21T13:07:23;4.70;;;3.80;;
10116;SDS011;5098;48.792;9.012;2023-02-21T13:12:26;6.13;;;3.87;;
10116;SDS011;5098;48.792;9.012;2023-02-21T13:14:55;4.70;;;3.87;;
10116;SDS011;5098;48.792;9.012;2023-02-21T13:17:23;5.90;;;3.60;;
10116;SDS011;5098;48.792;9.012;2023-02-21T13:20:00;10.47;;;5.33;;
10116;SDS011;5098;48.792;9.012;2023-02-21T13:28:19;7.80;;;3.43;;
10116;SDS011;5098;48.792;9.012;2023-02-21T13:30:49;6.80;;;3.90;;
10116;SDS011;5098;48.792;9.012;2023-02-21T13:33:23;6.10;;;3.60;;
10116;SDS011;5098;48.792;9.012;2023-02-21T13:35:50;5.53;;;3.73;;
10116;SDS011;5098;48.792;9.012;2023-02-21T13:38:16;7.33;;;4.10;;
10116;SDS011;5098;48.792;9.012;2023-02-21T13:40:53;6.30;;;3.40;;
10116;SDS011;5098;48.792;9.012;2023-02-21T13:43:28;4.30;;;3.60;;
10116;SDS011;5098;48.792;9.012;2023-02-21T13:46:21;4.00;;;3.50;;
10116;SDS011;5098;48.792;9.012;2023-02-21T13:48:41;6.03;;;3.53;;
10116;SDS011;5098;48.792;9.012;2023-02-21T13:51:07;4.53;;;3.80;;
10116;SDS011;5098;48.792;9.012;2023-02-21T13:54:06;6.73;;;3.40;;
10116;SDS011;5098;48.792;9.012;2023-02-21T13:56:38;6.57;;;3.73;;
10116;SDS011;5098;48.792;9.012;2023-02-21T14:01:50;6.27;;;3.30;;
10116;SDS011;5098;48.792;9.012;2023-02-21T14:07:01;4.80;;;2.87;;
10116;SDS011;5098;48.792;9.012;2023-02-21T14:09:27;3.50;;;3.20;;
10116;SDS011;5098;48.792;9.012;2023-02-21T14:12:00;4.17;;;3.10;;
10116;SDS011;5098;48.792;9.012;2023-02-21T14:14:30;5.73;;;3.00;;
10116;SDS011;5098;48.792;9.012;2023-02-21T14:19:24;5.33;;;3.10;;
10116;SDS011;5098;48.792;9.012;2023-02-21T14:24:36;14.13;;;3.40;;
10116;SDS011;5098;48.792;9.012;2023-02-21T14:27:04;3.43;;;2.77;;
10116;SDS011;5098;48.792;9.012;2023-02-21T14:35:00;4.63;;;3.20;;
10116;SDS011;5098;48.792;9.012;2023-02-21T14:37:37;5.30;;;3.00;;
10116;SDS011;5098;48.792;9.012;2023-02-21T14:42:45;10.67;;;5.80;;
10116;SDS011;5098;48.792;9.012;2023-02-21T14:45:19;8.67;;;4.90;;
10116;SDS011;5098;48.792;9.012;2023-02-21T14:48:09;6.33;;;3.30;;
10116;SDS011;5098;48.792;9.012;2023-02-21T14:56:11;6.40;;;3.40;;
10116;SDS011;5098;48.792;9.012;2023-02-21T15:04:17;8.10;;;4.60;;
10116;SDS011;5098;48.792;9.012;2023-02-21T15:06:52;3.93;;;3.03;;
10116;SDS011;5098;48.792;9.012;2023-02-21T15:09:20;6.07;;;2.90;;
10116;SDS011;5098;48.792;9.012;2023-02-21T15:11:46;6.33;;;2.53;;
10116;SDS011;5098;48.792;9.012;2023-02-21T15:14:14;4.07;;;2.73;;
10116;SDS011;5098;48.792;9.012;2023-02-21T15:16:47;5.60;;;3.63;;
10116;SDS011;5098;48.792;9.012;2023-02-21T15:19:33;10.07;;;6.60;;
10116;SDS011;5098;48.792;9.012;2023-02-21T15:27:30;5.03;;;2.67;;
10116;SDS011;5098;48.792;9.012;2023-02-21T15:32:37;6.30;;;3.20;;
10116;SDS011;5098;48.792;9.012;2023-02-21T15:35:04;12.73;;;9.07;;
10116;SDS011;5098;48.792;9.012;2023-02-21T15:37:32;6.90;;;3.80;;
10116;SDS011;5098;48.792;9.012;2023-02-21T15:40:00;8.07;;;3.07;;
10116;SDS011;5098;48.792;9.012;2023-02-21T15:42:28;5.03;;;2.70;;
10116;SDS011;5098;48.792;9.012;2023-02-21T15:44:56;3.50;;;2.70;;
10116;SDS011;5098;48.792;9.012;2023-02-21T15:47:23;4.83;;;3.77;;
10116;SDS011;5098;48.792;9.012;2023-02-21T15:49:56;8.80;;;3.20;;
10116;SDS011;5098;48.792;9.012;2023-02-21T15:57:42;6.13;;;2.80;;
10116;SDS011;5098;48.792;9.012;2023-02-21T16:03:23;5.27;;;2.90;;
10116;SDS011;5098;48.792;9.012;2023-02-21T16:05:38;7.60;;;3.20;;
10116;SDS011;5098;48.792;9.012;2023-02-21T16:08:04;4.90;;;3.10;;
10116;SDS011;5098;48.792;9.012;2023-02-21T16:10:30;5.10;;;3.50;;
10116;SDS011;5098;48.792;9.012;2023-02-21T16:13:00;5.17;;;3.33;;
10116;SDS011;5098;48.792;9.012;2023-02-21T16:15:29;5.60;;;3.70;;
10116;SDS011;5098;48.792;9.012;2023-02-21T16:18:03;6.53;;;3.40;;
10116;SDS011;5098;48.792;9.012;2023-02-21T16:20:38;8.20;;;3.90;;
10116;SDS011;5098;48.792;9.012;2023-02-21T16:23:11;5.73;;;3.30;;
10116;SDS011;5098;48.792;9.012;2023-02-21T16:28:22;6.30;;;3.47;;
10116;SDS011;5098;48.792;9.012;2023-02-21T16:30:48;5.80;;;3.37;;
10116;SDS011;5098;48.792;9.012;2023-02-21T16:33:15;7.47;;;4.00;;
10116;SDS011;5098;48.792;9.012;2023-02-21T16:35:41;7.67;;;3.43;;
10116;SDS011;5098;48.792;9.012;2023-02-21T16:38:14;6.27;;;3.63;;
10116;SDS011;5098;48.792;9.012;2023-02-21T16:40:41;7.43;;;4.90;;
10116;SDS011;5098;48.792;9.012;2023-02-21T16:43:07;7.17;;;4.60;;
10116;SDS011;5098;48.792;9.012;2023-02-21T16:45:40;6.87;;;3.93;;
10116;SDS011;5098;48.792;9.012;2023-02-21T16:48:09;6.13;;;3.87;;
10116;SDS011;5098;48.792;9.012;2023-02-21T16:50:38;5.90;;;3.80;;
10116;SDS011;5098;48.792;9.012;2023-02-21T16:53:04;6.77;;;4.00;;
10116;SDS011;5098;48.792;9.012;2023-02-21T16:55:31;8.53;;;3.40;;
10116;SDS011;5098;48.792;9.012;2023-02-21T16:58:39;4.63;;;3.00;;
10116;SDS011;5098;48.792;9.012;2023-02-21T17:00:48;6.00;;;3.80;;
10116;SDS011;5098;48.792;9.012;2023-02-21T17:03:14;7.47;;;3.80;;
10116;SDS011;5098;48.792;9.012;2023-02-21T17:05:40;8.03;;;4.73;;
10116;SDS011;5098;48.792;9.012;2023-02-21T17:08:06;7.60;;;4.30;;
10116;SDS011;5098;48.792;9.012;2023-02-21T17:10:32;6.30;;;4.50;;
10116;SDS011;5098;48.792;9.012;2023-02-21T17:12:58;6.67;;;5.10;;
10116;SDS011;5098;48.792;9.012;2023-02-21T17:15:27;7.03;;;4.50;;
10116;SDS011;5098;48.792;9.012;2023-02-21T17:17:53;14.00;;;8.73;;
10116;SDS011;5098;48.792;9.012;2023-02-21T17:20:19;7.63;;;5.20;;
10116;SDS011;5098;48.792;9.012;2023-02-21T17:22:46;10.67;;;6.03;;
10116;SDS011;5098;48.792;9.012;2023-02-21T17:25:13;11.63;;;5.67;;
10116;SDS011;5098;48.792;9.012;2023-02-21T17:27:39;14.30;;;6.57;;
10116;SDS011;5098;48.792;9.012;2023-02-21T17:30:06;8.97;;;6.10;;
10116;SDS011;5098;48.792;9.012;2023-02-21T17:32:32;12.40;;;9.20;;
10116;SDS011;5098;48.792;9.012;2023-02-21T17:34:58;15.77;;;8.20;;
10116;SDS011;5098;48.792;9.012;2023-02-21T17:37:24;13.53;;;6.30;;
10116;SDS011;5098;48.792;9.012;2023-02-21T17:39:53;13.60;;;6.10;;
10116;SDS011;5098;48.792;9.012;2023-02-21T17:42:20;13.57;;;6.03;;
10116;SDS011;5098;48.792;9.012;2023-02-21T17:44:46;8.87;;;6.37;;
10116;SDS011;5098;48.792;9.012;2023-02-21T17:47:14;10.57;;;6.20;;
10116;SDS011;5098;48.792;9.012;2023-02-21T17:49:40;11.27;;;5.30;;
10116;SDS011;5098;48.792;9.012;2023-02-21T17:52:06;8.20;;;4.87;;
10116;SDS011;5098;48.792;9.012;2023-02-21T17:54:32;5.50;;;4.50;;
10116;SDS011;5098;48.792;9.012;2023-02-21T17:56:58;11.50;;;4.37;;
10116;SDS011;5098;48.792;9.012;2023-02-21T17:59:24;6.83;;;4.10;;
10116;SDS011;5098;48.792;9.012;2023-02-21T18:01:53;6.87;;;4.10;;
10116;SDS011;5098;48.792;9.012;2023-02-21T18:04:20;9.60;;;4.20;;
10116;SDS011;5098;48.792;9.012;2023-02-21T18:06:47;11.30;;;4.90;;